Time;durP1;ratioP1;P1;durP2;ratioP2;P2;SDS_P1;SDS_P2;PMS_P1;PMS_P2;Temp;Humidity;BMP_temperature;BMP_pressure;BME280_temperature;BME280_humidity;BME280_pressure;Samples;Min_cycle;Max_cycle;Signal;HPM_P1;HPM_P2
2022/10/14 00:04:40;;;;;;;42.28;21.95;;;;;;;11.90;98.95;101291.41;10486007;28;20488;-78
2022/10/14 00:09:41;;;;;;;40.05;23.02;;;;;;;11.88;98.75;101297.50;10518015;28;20048;-78
2022/10/14 00:14:43;;;;;;;38.67;20.73;;;;;;;11.78;98.85;101286.78;10500463;28;20131;-78
2022/10/14 00:19:45;;;;;;;36.35;21.77;;;;;;;11.72;98.88;101298.91;10502921;28;20032;-78
2022/10/14 00:24:46;;;;;;;43.55;22.83;;;;;;;11.69;98.91;101291.84;10509628;28;20037;-78
2022/10/14 00:29:48;;;;;;;39.00;22.27;;;;;;;11.70;98.82;101287.53;10511308;28;20258;-78
2022/10/14 00:34:50;;;;;;;43.13;25.05;;;;;;;11.72;98.87;101291.91;10494298;28;20037;-79
2022/10/14 00:39:52;;;;;;;48.35;23.23;;;;;;;11.70;98.99;101282.28;10486807;28;20071;-78
2022/10/14 00:45:10;;;;;;;38.60;22.52;;;;;;;11.66;98.95;101276.97;10506149;28;20494;-78
2022/10/14 00:50:13;;;;;;;45.55;24.20;;;;;;;11.67;99.07;101289.19;10495090;28;20102;-79
2022/10/14 00:55:18;;;;;;;40.58;25.00;;;;;;;11.68;98.95;101290.09;10488121;28;20376;-78
2022/10/14 01:00:21;;;;;;;46.13;24.83;;;;;;;11.68;99.23;101279.63;10488066;28;20574;-78
2022/10/14 01:05:30;;;;;;;41.42;24.42;;;;;;;11.72;99.18;101280.56;10490345;28;20206;-78
2022/10/14 01:10:44;;;;;;;40.95;25.60;;;;;;;11.75;99.06;101280.63;10509812;28;20601;-78
2022/10/14 01:15:54;;;;;;;44.88;25.10;;;;;;;11.74;99.20;101278.84;10508680;28;20122;-78
2022/10/14 01:21:19;;;;;;;39.83;23.42;;;;;;;11.75;99.38;101280.63;10503036;28;20051;-77
2022/10/14 01:26:36;;;;;;;47.05;24.60;;;;;;;11.75;99.28;101271.00;10496062;28;20058;-78
2022/10/14 01:31:43;;;;;;;47.90;24.77;;;;;;;11.77;99.35;101273.66;10502995;28;20547;-78
2022/10/14 01:36:55;;;;;;;42.58;26.08;;;;;;;11.76;99.22;101267.53;10490498;28;20377;-78
2022/10/14 01:42:04;;;;;;;43.90;24.63;;;;;;;11.77;99.28;101260.53;10500980;28;20237;-77
2022/10/14 01:47:08;;;;;;;45.72;24.30;;;;;;;11.76;99.25;101250.91;10513997;28;20123;-78
2022/10/14 01:52:18;;;;;;;41.63;23.73;;;;;;;11.77;99.37;101257.91;10506669;28;20056;-78
2022/10/14 01:57:28;;;;;;;42.83;25.30;;;;;;;11.76;99.12;101262.28;10505716;28;20097;-78
2022/10/14 02:02:37;;;;;;;;;;;;;;;11.75;99.26;101259.63;10513582;28;20098;-77
2022/10/14 02:07:48;;;;;;;44.25;24.65;;;;;;;11.78;99.41;101246.56;10556443;27;19924;-77
2022/10/14 02:13:05;;;;;;;49.25;26.00;;;;;;;11.74;99.34;101253.50;10575960;27;20652;-77
2022/10/14 02:18:28;;;;;;;49.42;27.45;;;;;;;11.74;99.23;101253.50;10548419;27;20047;-78
2022/10/14 02:23:45;;;;;;;48.30;26.88;;;;;;;11.72;99.29;101239.44;10572643;27;20047;-78
2022/10/14 02:28:47;;;;;;;47.85;27.85;;;;;;;11.70;99.24;101241.16;10555669;27;20040;-78
2022/10/14 02:33:54;;;;;;;47.47;25.95;;;;;;;11.72;99.40;101233.34;10557637;27;20123;-77
2022/10/14 02:38:59;;;;;;;46.72;27.17;;;;;;;11.73;99.17;101233.38;10573308;27;20074;-78
2022/10/14 02:44:03;;;;;;;64.18;27.60;;;;;;;11.75;99.27;101236.88;10560465;27;20047;-78
2022/10/14 02:49:05;;;;;;;50.03;27.42;;;;;;;11.75;99.23;101221.16;10536693;27;20052;-78
2022/10/14 02:54:07;;;;;;;52.40;27.65;;;;;;;11.72;99.31;101228.09;10565205;27;20477;-78
2022/10/14 02:59:09;;;;;;;53.85;28.48;;;;;;;11.73;99.35;101232.50;10567214;27;20126;-77
2022/10/14 03:04:11;;;;;;;49.90;29.02;;;;;;;11.76;99.35;101225.53;10538825;28;20525;-77
2022/10/14 03:09:13;;;;;;;50.30;27.55;;;;;;;11.75;99.38;101218.53;10544844;27;20043;-79
2022/10/14 03:14:15;;;;;;;52.88;27.92;;;;;;;11.73;99.28;101220.25;10573892;27;20067;-79
2022/10/14 03:19:17;;;;;;;59.58;31.45;;;;;;;11.77;99.47;101216.84;10518280;27;20039;-78
2022/10/14 03:24:22;;;;;;;49.35;27.38;;;;;;;11.73;99.53;101208.88;10557207;27;20059;-78
2022/10/14 03:29:43;;;;;;;58.63;29.40;;;;;;;11.71;99.41;101215.81;10551735;27;20503;-78
2022/10/14 03:34:51;;;;;;;52.97;28.33;;;;;;;11.67;99.37;101213.13;10552878;27;20039;-78
2022/10/14 03:39:57;;;;;;;56.50;28.35;;;;;;;11.69;99.44;101215.78;10554381;27;20046;-79
2022/10/14 03:44:59;;;;;;;58.75;28.33;;;;;;;11.67;99.46;101205.25;10558908;27;20040;-78
2022/10/14 03:50:03;;;;;;;58.70;29.63;;;;;;;11.71;99.47;101211.47;10546680;27;20542;-78
2022/10/14 03:55:11;;;;;;;57.58;29.25;;;;;;;11.69;99.54;101215.78;10542040;27;20047;-78
2022/10/14 04:00:15;;;;;;;62.13;29.77;;;;;;;11.66;99.62;101218.34;10558422;27;20055;-78
2022/10/14 04:05:23;;;;;;;69.18;32.00;;;;;;;11.65;99.62;101211.34;10557025;27;22281;-77
2022/10/14 04:10:25;;;;;;;58.85;29.80;;;;;;;11.65;99.74;101204.34;10544734;27;20105;-78
2022/10/14 04:15:28;;;;;;;62.55;30.58;;;;;;;11.65;99.58;101196.50;10549511;27;20042;-78
2022/10/14 04:20:43;;;;;;;54.22;29.55;;;;;;;11.69;99.66;101202.66;10555755;27;20575;-78
2022/10/14 04:25:45;;;;;;;62.47;29.23;;;;;;;11.64;99.72;101193.84;10547071;27;20097;-78
2022/10/14 04:30:47;;;;;;;61.25;28.40;;;;;;;11.64;99.75;101193.84;10550941;27;20507;-78
2022/10/14 04:36:00;;;;;;;59.85;28.55;;;;;;;11.67;99.71;101188.66;10569413;27;20073;-78
2022/10/14 04:41:08;;;;;;;60.45;29.00;;;;;;;11.66;99.69;101192.13;10551384;27;20039;-77
2022/10/14 04:46:14;;;;;;;60.80;28.38;;;;;;;11.63;99.84;101192.06;10556648;27;20088;-80
2022/10/14 04:51:16;;;;;;;56.67;29.77;;;;;;;11.65;99.93;101188.63;10541056;27;20044;-78
2022/10/14 04:56:45;;;;;;;58.97;29.17;;;;;;;11.71;99.88;101195.72;10567395;27;20480;-77
2022/10/14 05:01:46;;;;;;;63.42;28.67;;;;;;;11.68;99.89;101195.69;10549186;27;20062;-77
2022/10/14 05:06:49;;;;;;;65.43;29.70;;;;;;;11.64;99.92;101194.72;10553539;28;20040;-78
2022/10/14 05:11:52;;;;;;;58.25;28.75;;;;;;;11.60;99.88;101181.50;10549437;27;20357;-78
2022/10/14 05:16:57;;;;;;;55.28;27.38;;;;;;;11.62;99.78;101185.03;10560632;28;20131;-78
2022/10/14 05:22:03;;;;;;;60.72;29.70;;;;;;;11.64;100.00;101178.09;10545022;28;20139;-78
2022/10/14 05:27:08;;;;;;;54.67;27.60;;;;;;;11.62;99.87;101180.69;10547915;28;20040;-78
2022/10/14 05:32:10;;;;;;;56.67;27.35;;;;;;;11.59;99.89;101172.78;10537921;28;20514;-78
2022/10/14 05:37:18;;;;;;;53.58;27.13;;;;;;;11.59;99.93;101177.09;10552114;28;20116;-78
2022/10/14 05:42:24;;;;;;;56.55;26.38;;;;;;;11.61;100.00;101175.41;10551703;28;20039;-78
2022/10/14 05:47:29;;;;;;;51.70;25.25;;;;;;;11.60;100.00;101171.91;10547533;28;20051;-78
2022/10/14 05:52:36;;;;;;;49.90;25.58;;;;;;;11.61;100.00;101172.81;10546533;28;20040;-78
2022/10/14 05:57:46;;;;;;;45.80;23.08;;;;;;;11.59;100.00;101174.50;10552418;28;20141;-78
2022/10/14 06:02:51;;;;;;;49.60;25.05;;;;;;;11.58;100.00;101173.63;10553984;28;20075;-79
2022/10/14 06:07:53;;;;;;;56.22;23.65;;;;;;;11.59;100.00;101182.34;10576575;28;20071;-80
2022/10/14 06:12:55;;;;;;;46.65;24.02;;;;;;;11.60;100.00;101176.28;10570552;28;20526;-79
2022/10/14 06:17:58;;;;;;;53.67;23.23;;;;;;;11.62;100.00;101170.19;10550831;28;20040;-80
2022/10/14 06:23:01;;;;;;;44.63;21.10;;;;;;;11.65;100.00;101170.25;10546591;28;20052;-79
2022/10/14 06:28:04;;;;;;;49.63;23.23;;;;;;;11.65;100.00;101167.63;10551947;28;20043;-79
2022/10/14 06:33:06;;;;;;;47.53;22.35;;;;;;;11.73;100.00;101173.03;10579333;27;20043;-79
2022/10/14 06:38:07;;;;;;;48.95;21.67;;;;;;;11.81;100.00;101166.19;10560305;27;20058;-78
2022/10/14 06:43:10;;;;;;;47.22;22.50;;;;;;;11.88;100.00;101163.66;10563565;27;20044;-78
2022/10/14 06:48:11;;;;;;;50.95;21.63;;;;;;;11.84;100.00;101153.13;10563854;27;20065;-78
2022/10/14 06:53:13;;;;;;;46.58;21.63;;;;;;;11.78;100.00;101157.38;10573946;27;20135;-78
2022/10/14 06:58:15;;;;;;;50.80;22.67;;;;;;;11.80;100.00;101153.00;10574407;27;20051;-79
2022/10/14 07:03:17;;;;;;;49.42;21.85;;;;;;;11.72;100.00;101150.25;10571146;27;20725;-79
2022/10/14 07:08:18;;;;;;;41.28;20.95;;;;;;;11.73;100.00;101156.41;10586333;27;20047;-79
2022/10/14 07:13:20;;;;;;;43.80;19.35;;;;;;;11.72;100.00;101158.13;10583929;27;20040;-80
2022/10/14 07:18:21;;;;;;;36.63;18.63;;;;;;;11.71;100.00;101163.34;10564938;27;20039;-80
2022/10/14 07:23:24;;;;;;;41.85;17.90;;;;;;;11.76;99.85;101164.34;10578725;27;20054;-79
2022/10/14 07:28:25;;;;;;;38.95;18.42;;;;;;;11.84;99.55;101158.38;10577568;27;20051;-79
2022/10/14 07:33:27;;;;;;;40.60;18.27;;;;;;;12.29;99.48;101159.13;10546589;27;20044;-80
2022/10/14 07:38:30;;;;;;;41.85;19.20;;;;;;;13.76;99.11;101147.91;10548404;27;20047;-79
2022/10/14 07:43:33;;;;;;;47.00;20.38;;;;;;;16.77;97.44;101152.53;10576735;27;20477;-79
2022/10/14 07:48:35;;;;;;;49.92;20.83;;;;;;;16.76;91.41;101156.06;10563989;27;20101;-79
2022/10/14 07:53:58;;;;;;;36.40;18.00;;;;;;;14.60;88.74;101142.41;10573700;27;20043;-79
2022/10/14 07:59:00;;;;;;;35.40;17.27;;;;;;;13.49;88.84;101138.84;10568510;27;20105;-79
2022/10/14 08:04:03;;;;;;;31.52;15.38;;;;;;;13.35;89.40;101136.09;10569238;27;20074;-79
2022/10/14 08:09:06;;;;;;;33.60;16.50;;;;;;;14.13;89.71;101141.22;10584996;27;20134;-79
2022/10/14 08:14:08;;;;;;;31.95;15.00;;;;;;;14.56;88.90;101138.03;10570985;27;20047;-79
2022/10/14 08:19:10;;;;;;;30.08;14.80;;;;;;;14.71;87.41;101136.38;10552549;27;20052;-80
2022/10/14 08:24:15;;;;;;;25.83;12.88;;;;;;;14.72;86.53;101146.03;10568977;27;20048;-80
2022/10/14 08:29:18;;;;;;;29.30;14.27;;;;;;;13.77;85.64;101145.28;10583596;27;20058;-80
2022/10/14 08:34:20;;;;;;;26.83;13.40;;;;;;;13.33;86.42;101153.56;10566072;27;20039;-79
2022/10/14 08:39:22;;;;;;;27.30;12.88;;;;;;;13.06;86.98;101154.09;10571412;27;20117;-79
2022/10/14 08:44:52;;;;;;;28.63;14.25;;;;;;;13.87;87.62;101145.38;10575877;27;20561;-79
2022/10/14 08:50:03;;;;;;;28.35;14.30;;;;;;;14.77;86.56;101144.31;10566532;27;20055;-80
2022/10/14 08:55:31;;;;;;;29.83;13.40;;;;;;;14.58;85.21;101144.16;10554788;27;20036;-78
2022/10/14 09:00:34;;;;;;;24.17;12.55;;;;;;;14.42;84.69;101140.53;10545460;27;20056;-79
2022/10/14 09:05:38;;;;;;;25.30;13.73;;;;;;;15.28;84.88;101133.97;10556254;27;20032;-79
2022/10/14 09:10:41;;;;;;;24.30;13.25;;;;;;;15.41;83.70;101137.56;10577377;27;20054;-79
2022/10/14 09:16:15;;;;;;;25.73;13.48;;;;;;;14.63;83.09;101131.06;10552050;27;20044;-79
2022/10/14 09:21:35;;;;;;;28.05;13.20;;;;;;;14.26;83.67;101118.50;10559123;27;20066;-79
2022/10/14 09:26:57;;;;;;;29.90;13.68;;;;;;;14.42;84.23;101114.19;10542629;28;20055;-78
2022/10/14 09:32:06;;;;;;;27.00;13.73;;;;;;;14.30;84.03;101111.50;10534969;28;20044;-79
2022/10/14 09:37:21;;;;;;;31.40;14.75;;;;;;;14.93;84.32;101109.22;10522729;28;20657;-77
2022/10/14 09:42:31;;;;;;;30.08;14.70;;;;;;;15.60;83.53;101101.50;10557982;28;20046;-77
2022/10/14 09:47:54;;;;;;;;;;;;;;;15.67;81.75;101098.91;10553485;28;20496;-76
2022/10/14 09:53:02;;;;;;;29.38;16.80;;;;;;;15.10;80.08;101109.31;10565539;28;19969;-76
2022/10/14 09:58:14;;;;;;;27.98;14.98;;;;;;;14.72;80.40;101112.66;10549737;28;20055;-77
2022/10/14 10:03:28;;;;;;;32.08;14.82;;;;;;;14.31;81.12;101106.22;10540085;28;20044;-77
2022/10/14 10:08:31;;;;;;;26.80;12.43;;;;;;;14.08;81.59;101113.97;10552529;27;20047;-78
2022/10/14 10:13:45;;;;;;;30.15;13.23;;;;;;;13.89;82.23;101107.66;10563401;27;20414;-78
2022/10/14 10:18:48;;;;;;;22.98;12.27;;;;;;;13.84;82.50;101101.50;10551935;27;20043;-77
2022/10/14 10:23:58;;;;;;;21.77;11.65;;;;;;;13.77;82.92;101097.03;10550323;27;20047;-78
2022/10/14 10:29:03;;;;;;;23.05;11.57;;;;;;;13.78;83.09;101088.25;10563926;27;20043;-78
2022/10/14 10:34:29;;;;;;;20.88;11.13;;;;;;;13.94;83.00;101079.63;10518473;27;20059;-77
2022/10/14 10:39:55;;;;;;;24.83;11.07;;;;;;;14.05;82.96;101063.03;10541712;27;20067;-77
2022/10/14 10:45:28;;;;;;;23.90;12.05;;;;;;;14.17;82.85;101068.38;10532354;28;20039;-78
2022/10/14 10:50:46;;;;;;;21.50;11.20;;;;;;;14.13;82.94;101058.72;10563157;27;20047;-78
2022/10/14 10:56:32;;;;;;;21.95;10.73;;;;;;;14.39;82.67;101055.34;10573233;27;20177;-77
2022/10/14 11:01:45;;;;;;;18.60;10.07;;;;;;;14.71;81.91;101047.63;10575984;27;20502;-79
2022/10/14 11:12:21;;;;;;;22.95;11.35;;;;;;;14.69;81.16;101044.09;10566872;27;20469;-77
2022/10/14 11:17:48;;;;;;;22.63;11.48;;;;;;;14.58;81.42;101044.03;10561104;27;20051;-77
2022/10/14 11:23:13;;;;;;;25.13;13.00;;;;;;;14.45;81.45;101039.56;10568102;27;20065;-77
2022/10/14 11:28:35;;;;;;;23.65;12.45;;;;;;;14.36;81.90;101034.25;10531424;27;20059;-78
2022/10/14 11:34:13;;;;;;;27.48;14.75;;;;;;;14.19;82.31;101021.88;10572228;27;20510;-77
2022/10/14 11:39:26;;;;;;;26.13;14.80;;;;;;;14.21;82.56;101020.13;10558023;27;20525;-77
2022/10/14 11:44:37;;;;;;;25.70;13.73;;;;;;;14.39;82.87;101010.56;10580996;27;20419;-77
2022/10/14 11:49:47;;;;;;;24.92;14.18;;;;;;;14.73;82.99;100997.56;10563401;27;20118;-77
2022/10/14 11:55:01;;;;;;;28.75;15.05;;;;;;;14.99;82.74;100990.59;10547147;27;20032;-76
2022/10/14 12:00:04;;;;;;;30.95;16.10;;;;;;;15.15;82.31;100991.50;10563429;27;20106;-77
2022/10/14 12:05:15;;;;;;;30.88;16.63;;;;;;;15.09;81.88;100977.44;10573047;27;20642;-78
2022/10/14 12:10:31;;;;;;;35.20;17.83;;;;;;;15.18;82.09;100974.81;10572924;27;20043;-77
2022/10/14 12:15:36;;;;;;;27.75;16.33;;;;;;;15.29;81.56;100964.28;10569429;27;20036;-78
2022/10/14 12:20:43;;;;;;;33.25;17.85;;;;;;;15.24;81.68;100966.91;10563259;27;20495;-78
2022/10/14 12:26:02;;;;;;;30.35;17.65;;;;;;;15.21;81.71;100959.00;10543789;27;20044;-77
2022/10/14 12:31:33;;;;;;;27.20;15.52;;;;;;;15.07;81.89;100951.03;10574408;27;20402;-78
2022/10/14 12:36:35;;;;;;;27.98;16.52;;;;;;;14.94;82.06;100939.63;10564426;27;20105;-77
2022/10/14 12:41:53;;;;;;;32.60;17.70;;;;;;;14.85;82.62;100939.63;10548554;27;20046;-77
2022/10/14 12:46:54;;;;;;;26.50;15.52;;;;;;;14.92;82.90;100940.50;10562811;27;20031;-78
2022/10/14 12:52:00;;;;;;;24.33;14.70;;;;;;;14.92;82.87;100922.03;10554660;27;20564;-77
2022/10/14 12:57:14;;;;;;;24.58;14.82;;;;;;;14.94;82.84;100918.53;10545663;27;20050;-78
2022/10/14 13:02:24;;;;;;;25.40;15.52;;;;;;;14.93;83.15;100910.63;10575446;27;20039;-78
2022/10/14 13:07:26;;;;;;;23.60;15.48;;;;;;;14.95;83.38;100914.13;10529505;28;20040;-77
2022/10/14 13:12:43;;;;;;;27.90;16.10;;;;;;;14.93;83.75;100900.94;10567858;27;20047;-78
2022/10/14 13:17:46;;;;;;;28.30;17.17;;;;;;;14.87;83.51;100890.41;10567810;27;20044;-77
2022/10/14 13:22:48;;;;;;;31.98;17.55;;;;;;;14.81;84.05;100877.22;10569487;27;20530;-78
2022/10/14 13:28:19;;;;;;;28.42;16.90;;;;;;;14.96;84.17;100869.31;10561108;28;20039;-78
2022/10/14 13:33:40;;;;;;;25.65;15.90;;;;;;;15.17;83.93;100859.63;10560146;28;20549;-78
2022/10/14 13:38:50;;;;;;;24.23;16.65;;;;;;;15.43;83.60;100850.81;10570539;28;20044;-80
2022/10/14 13:43:56;;;;;;;;;;;;;;;15.57;83.37;100849.03;10566383;27;20048;-77
2022/10/14 13:49:00;;;;;;;23.55;13.73;;;;;;;15.74;83.00;100835.78;10563291;28;19975;-76
2022/10/14 13:54:25;;;;;;;20.73;12.93;;;;;;;15.49;82.41;100840.25;10570335;27;20399;-76
2022/10/14 13:59:27;;;;;;;21.83;12.40;;;;;;;15.36;82.78;100832.34;10564663;27;20040;-76
2022/10/14 14:04:54;;;;;;;18.67;11.63;;;;;;;15.08;83.46;100825.38;10560144;27;20047;-76
2022/10/14 14:10:01;;;;;;;16.77;10.43;;;;;;;15.02;84.45;100824.47;10568085;27;20051;-77
2022/10/14 14:15:04;;;;;;;16.35;8.77;;;;;;;14.79;84.95;100819.22;10550531;27;21683;-77
2022/10/14 14:20:10;;;;;;;14.70;9.38;;;;;;;14.72;86.28;100803.41;10557293;27;20115;-80
2022/10/14 14:25:21;;;;;;;17.90;9.55;;;;;;;14.63;87.34;100804.28;10568885;27;20078;-80
2022/10/14 14:30:53;;;;;;;21.45;9.75;;;;;;;14.75;88.20;100792.88;10599296;27;20065;-80
2022/10/14 14:35:58;;;;;;;17.88;9.38;;;;;;;14.71;88.56;100793.72;10589673;27;20032;-81
2022/10/14 14:41:06;;;;;;;15.10;8.50;;;;;;;14.62;88.86;100779.69;10568063;27;20054;-82
2022/10/14 14:46:15;;;;;;;16.17;8.80;;;;;;;14.55;89.29;100774.38;10584392;27;20518;-81
2022/10/14 14:51:18;;;;;;;15.63;9.52;;;;;;;14.52;89.66;100761.19;10588109;27;20388;-82
2022/10/14 14:56:25;;;;;;;14.27;8.60;;;;;;;14.51;90.21;100760.31;10580489;27;20038;-81
2022/10/14 15:01:28;;;;;;;16.75;9.98;;;;;;;14.47;90.18;100753.28;10593392;27;20097;-80
2022/10/14 15:06:30;;;;;;;19.05;8.38;;;;;;;14.45;90.34;100755.91;10586643;27;20044;-82
2022/10/14 15:11:31;;;;;;;16.42;8.55;;;;;;;14.39;90.58;100753.28;10571336;27;20461;-79
2022/10/14 15:16:35;;;;;;;18.05;8.15;;;;;;;14.30;90.92;100751.50;10571677;27;20059;-78
2022/10/14 15:21:37;;;;;;;16.20;8.40;;;;;;;14.31;91.02;100741.88;10550346;27;20606;-79
2022/10/14 15:26:39;;;;;;;12.90;8.18;;;;;;;14.27;91.29;100737.47;10561731;27;20132;-82
2022/10/14 15:31:44;;;;;;;20.52;10.23;;;;;;;14.27;91.50;100727.81;10538911;27;20051;-81
2022/10/14 15:36:49;;;;;;;15.45;8.98;;;;;;;14.25;91.53;100726.94;10580889;27;20326;-82
2022/10/14 15:41:51;;;;;;;15.95;8.23;;;;;;;14.28;91.84;100723.44;10548232;28;20058;-82
2022/10/14 15:52:18;;;;;;;10.40;6.38;;;;;;;14.27;92.07;100708.50;10573407;27;20189;-82
2022/10/14 15:57:26;;;;;;;9.13;4.97;;;;;;;14.16;92.00;100708.50;10555591;27;20046;-83
2022/10/14 16:02:34;;;;;;;11.07;6.10;;;;;;;14.05;92.21;100703.22;10568999;28;20050;-83
2022/10/14 16:07:37;;;;;;;9.55;5.35;;;;;;;13.94;92.51;100699.69;10561686;27;20062;-83
2022/10/14 16:12:39;;;;;;;11.27;5.57;;;;;;;13.86;93.04;100691.78;10580053;27;20046;-85
2022/10/14 16:17:41;;;;;;;9.68;5.22;;;;;;;13.83;93.45;100686.50;10578886;27;20047;-84
2022/10/14 16:22:43;;;;;;;13.32;6.18;;;;;;;13.77;93.83;100684.72;10579063;27;20125;-84
2022/10/14 16:27:45;;;;;;;9.27;5.75;;;;;;;13.74;93.95;100681.22;10569547;27;20130;-84
2022/10/14 16:32:47;;;;;;;10.43;5.65;;;;;;;13.72;94.42;100677.69;10548365;27;20112;-81
2022/10/14 16:37:48;;;;;;;12.32;6.32;;;;;;;13.70;94.79;100663.66;10558410;27;20104;-78
2022/10/14 16:42:50;;;;;;;11.63;5.88;;;;;;;13.65;94.98;100670.69;10567606;27;20101;-80
2022/10/14 16:47:53;;;;;;;10.05;5.35;;;;;;;13.61;95.17;100664.53;10546175;27;20177;-80
2022/10/14 16:58:15;;;;;;;10.93;6.82;;;;;;;13.52;95.58;100653.97;10552803;27;20050;-79
2022/10/14 17:03:16;;;;;;;11.30;6.93;;;;;;;13.54;95.86;100650.47;10547680;27;20445;-81
2022/10/14 17:08:19;;;;;;;11.38;6.57;;;;;;;13.54;96.17;100654.84;10532385;27;20042;-82
2022/10/14 17:13:23;;;;;;;12.88;6.97;;;;;;;13.56;96.43;100654.00;10561293;27;20098;-80
2022/10/14 17:18:25;;;;;;;13.95;6.68;;;;;;;13.59;96.67;100639.97;10568314;27;20047;-82
2022/10/14 17:23:30;;;;;;;11.90;7.50;;;;;;;13.57;96.72;100646.97;10536323;28;20101;-83
2022/10/14 17:28:32;;;;;;;13.70;7.03;;;;;;;13.55;96.65;100648.72;10550441;28;20516;-81
2022/10/14 17:33:34;;;;;;;11.43;7.30;;;;;;;13.54;96.61;100644.31;10574075;28;20400;-80
2022/10/14 17:38:36;;;;;;;12.05;7.55;;;;;;;13.55;96.85;100639.06;10569253;28;20169;-80
2022/10/14 17:43:38;;;;;;;18.40;9.70;;;;;;;13.49;96.95;100643.44;10544971;28;20523;-80
2022/10/14 17:48:41;;;;;;;14.32;7.65;;;;;;;13.47;97.27;100634.69;10553758;28;20043;-81
2022/10/14 17:53:43;;;;;;;16.40;8.07;;;;;;;13.47;97.10;100625.03;10559758;28;20126;-78
2022/10/14 17:58:45;;;;;;;10.93;6.47;;;;;;;13.50;97.24;100613.66;10562216;28;20035;-80
2022/10/14 18:03:47;;;;;;;13.25;7.47;;;;;;;13.52;97.48;100612.75;10449074;28;68250;-80
2022/10/14 18:08:54;;;;;;;12.85;7.40;;;;;;;13.47;97.52;100611.00;10465859;28;20727;-81
2022/10/14 18:14:00;;;;;;;11.48;7.03;;;;;;;13.49;97.62;100611.88;10490750;28;20470;-80
2022/10/14 18:19:05;;;;;;;13.32;8.05;;;;;;;13.47;97.68;100611.88;10481133;28;20094;-82
2022/10/14 18:24:07;;;;;;;12.02;7.45;;;;;;;13.48;97.80;100608.38;10496912;28;20490;-80
2022/10/14 18:29:09;;;;;;;13.75;7.20;;;;;;;13.44;97.77;100610.13;10499094;28;20525;-80
2022/10/14 18:34:11;;;;;;;11.40;5.70;;;;;;;13.42;97.79;100603.97;10503515;28;20521;-82
2022/10/14 18:39:14;;;;;;;10.90;7.03;;;;;;;13.41;98.14;100598.72;10490525;28;20136;-83
2022/10/14 18:44:15;;;;;;;10.80;6.72;;;;;;;13.36;97.97;100597.81;10510712;28;20055;-80
2022/10/14 18:49:17;;;;;;;11.18;6.85;;;;;;;13.38;98.23;100598.72;10493849;28;20515;-80
2022/10/14 18:54:20;;;;;;;11.57;8.15;;;;;;;13.39;98.31;100584.66;10503214;28;20087;-80
2022/10/14 18:59:22;;;;;;;12.68;8.00;;;;;;;13.42;98.33;100580.31;10508165;28;20513;-80
2022/10/14 19:04:26;;;;;;;11.90;7.90;;;;;;;13.38;98.48;100575.03;10505920;28;20033;-80
2022/10/14 19:09:31;;;;;;;12.18;7.53;;;;;;;13.41;98.66;100565.41;10496700;28;20041;-82
2022/10/14 19:14:33;;;;;;;12.77;7.78;;;;;;;13.38;98.68;100567.16;10520241;28;20041;-84
2022/10/14 19:19:34;;;;;;;12.60;8.25;;;;;;;13.40;98.72;100560.13;10506842;28;20436;-83
2022/10/14 19:24:36;;;;;;;12.10;7.47;;;;;;;13.38;98.68;100556.63;10505929;28;20714;-84
2022/10/14 19:29:38;;;;;;;12.98;8.45;;;;;;;13.40;98.97;100552.25;10525926;28;20091;-82
2022/10/14 19:34:40;;;;;;;13.50;8.70;;;;;;;13.38;99.19;100541.72;10527206;28;20503;-82
2022/10/14 19:39:47;;;;;;;14.88;8.63;;;;;;;13.38;99.03;100541.72;10497641;28;20108;-81
2022/10/14 19:44:49;;;;;;;15.10;9.50;;;;;;;13.39;99.16;100535.59;10523550;28;20104;-81
2022/10/14 19:49:50;;;;;;;13.93;9.30;;;;;;;13.36;99.06;100537.31;10514273;28;20036;-85
2022/10/14 19:54:52;;;;;;;14.07;8.45;;;;;;;13.38;99.39;100530.34;10509793;28;20054;-84
2022/10/14 19:59:54;;;;;;;13.13;8.60;;;;;;;13.38;99.48;100528.56;10501224;28;20070;-81
2022/10/14 20:04:55;;;;;;;14.70;9.50;;;;;;;13.44;99.44;100530.34;10503399;28;20041;-82
2022/10/14 20:09:57;;;;;;;15.60;8.70;;;;;;;13.44;99.81;100525.09;10495259;28;20055;-82
2022/10/14 20:15:05;;;;;;;15.07;9.85;;;;;;;13.43;99.66;100518.06;10521679;28;20787;-82
2022/10/14 20:20:07;;;;;;;13.90;9.27;;;;;;;13.44;99.83;100517.19;10484908;28;20044;-82
2022/10/14 20:25:09;;;;;;;15.48;9.35;;;;;;;13.42;99.89;100513.66;10503194;28;20110;-83
2022/10/14 20:30:11;;;;;;;15.75;9.60;;;;;;;13.43;99.87;100507.53;10485813;28;20045;-82
2022/10/14 20:35:13;;;;;;;15.82;9.43;;;;;;;13.44;99.87;100504.91;10503412;28;20050;-83
2022/10/14 20:40:15;;;;;;;16.23;10.57;;;;;;;13.44;99.99;100507.53;10501227;28;20032;-82
2022/10/14 20:45:17;;;;;;;16.88;9.88;;;;;;;13.47;100.00;100496.16;10485638;28;20075;-84
2022/10/14 20:50:21;;;;;;;16.27;10.45;;;;;;;13.44;100.00;100510.16;10480670;28;20039;-83
2022/10/14 20:55:22;;;;;;;18.75;11.23;;;;;;;13.46;100.00;100506.66;10515830;28;20541;-85
2022/10/14 21:00:24;;;;;;;16.25;10.35;;;;;;;13.45;100.00;100505.81;10501413;28;20089;-85
2022/10/14 21:06:16;;;;;;;17.92;10.43;;;;;;;13.47;100.00;100506.66;10508918;28;20239;-82
2022/10/14 21:11:43;;;;;;;17.13;11.25;;;;;;;13.47;100.00;100514.56;10513663;28;20079;-83
2022/10/14 21:16:45;;;;;;;17.63;10.48;;;;;;;13.42;100.00;100504.03;10517572;28;20036;-83
2022/10/14 21:21:48;;;;;;;20.10;12.43;;;;;;;13.38;100.00;100514.56;10512866;28;20770;-82
2022/10/14 21:26:51;;;;;;;20.52;12.15;;;;;;;13.40;100.00;100512.78;10499112;28;20045;-83
2022/10/14 21:31:53;;;;;;;22.48;13.70;;;;;;;13.34;100.00;100504.91;10519134;28;20574;-82
2022/10/14 21:36:55;;;;;;;23.02;13.65;;;;;;;13.31;100.00;100512.75;10517996;28;20064;-82
2022/10/14 21:41:57;;;;;;;24.23;13.68;;;;;;;13.26;100.00;100504.88;10502971;28;20508;-83
2022/10/14 21:46:59;;;;;;;27.58;14.65;;;;;;;13.19;100.00;100509.22;10513705;28;20044;-81
2022/10/14 21:52:01;;;;;;;25.08;15.10;;;;;;;13.12;100.00;100511.84;10504015;28;20748;-82
2022/10/14 21:57:03;;;;;;;22.35;13.27;;;;;;;13.01;100.00;100499.53;10502784;28;20075;-83
2022/10/14 22:02:05;;;;;;;27.65;14.68;;;;;;;12.96;100.00;100492.53;10508540;28;20044;-81
2022/10/14 22:07:06;;;;;;;27.98;15.30;;;;;;;12.86;99.98;100492.50;10526701;28;20109;-83
2022/10/14 22:12:10;;;;;;;25.95;14.95;;;;;;;12.77;99.86;100495.09;10532445;28;20047;-81
2022/10/14 22:17:12;;;;;;;25.42;14.07;;;;;;;12.72;99.78;100502.09;10518294;28;20055;-84
2022/10/14 22:22:14;;;;;;;27.02;14.50;;;;;;;12.65;99.65;100506.44;10524428;28;20051;-82
2022/10/14 22:27:15;;;;;;;27.52;15.48;;;;;;;12.51;99.72;100502.88;10526095;28;20105;-81
2022/10/14 22:32:17;;;;;;;30.25;15.40;;;;;;;12.42;99.63;100501.09;10526394;28;20063;-83
2022/10/14 22:37:19;;;;;;;28.92;15.95;;;;;;;12.35;99.56;100496.66;10505934;28;20131;-82
2022/10/14 22:42:21;;;;;;;30.45;15.10;;;;;;;12.30;99.51;100498.41;10526138;28;20125;-82
2022/10/14 22:47:22;;;;;;;27.48;14.80;;;;;;;12.18;99.57;100502.69;10530282;28;20044;-83
2022/10/14 22:52:25;;;;;;;30.90;15.65;;;;;;;12.12;99.46;100507.91;10528361;28;20083;-82
2022/10/14 22:57:26;;;;;;;28.83;15.90;;;;;;;12.08;99.45;100511.38;10505234;28;20048;-84
2022/10/14 23:02:28;;;;;;;31.27;14.98;;;;;;;11.99;99.30;100508.69;10528325;28;20043;-82
2022/10/14 23:07:30;;;;;;;29.83;15.50;;;;;;;11.90;99.29;100506.00;10521431;28;20047;-82
2022/10/14 23:12:31;;;;;;;31.63;14.45;;;;;;;11.85;99.45;100509.44;10525598;28;20052;-81
2022/10/14 23:17:33;;;;;;;31.10;14.82;;;;;;;11.80;99.43;100499.78;10529547;28;20219;-83
2022/10/14 23:22:35;;;;;;;30.08;15.50;;;;;;;11.74;99.50;100508.50;10520150;28;20227;-82